createdAt,value
2023-01-19T00:02:57.679Z,15.10
2023-01-19T00:07:03.226Z,16.10
2023-01-19T00:11:06.339Z,11.90
2023-01-19T00:15:09.629Z,13.00
2023-01-19T00:19:12.615Z,11.10
2023-01-19T00:23:16.540Z,9.10
2023-01-19T00:27:22.408Z,8.30
2023-01-19T00:31:25.288Z,13.30
2023-01-19T00:35:32.383Z,9.80
2023-01-19T00:39:35.175Z,12.10
2023-01-19T00:43:38.010Z,13.20
2023-01-19T00:47:41.065Z,7.90
2023-01-19T00:51:43.827Z,9.50
2023-01-19T00:55:46.791Z,11.30
2023-01-19T00:59:49.707Z,9.70
2023-01-19T01:03:53.540Z,10.20
2023-01-19T01:08:01.817Z,7.80
2023-01-19T01:12:07.283Z,11.20
2023-01-19T01:16:16.592Z,7.40
2023-01-19T01:20:22.846Z,7.20
2023-01-19T01:24:26.135Z,9.40
2023-01-19T01:28:28.904Z,8.10
2023-01-19T01:32:31.628Z,8.20
2023-01-19T01:36:35.605Z,9.10
2023-01-19T01:40:41.333Z,8.60
2023-01-19T01:44:53.049Z,7.10
2023-01-19T01:49:13.201Z,8.10
2023-01-19T01:53:16.139Z,15.40
2023-01-19T01:57:23.140Z,7.90
2023-01-19T02:01:50.552Z,11.80
2023-01-19T02:05:57.603Z,9.90
2023-01-19T02:10:19.063Z,9.30
2023-01-19T02:14:21.773Z,10.10
2023-01-19T02:18:28.743Z,12.70
2023-01-19T02:22:38.578Z,9.40
2023-01-19T02:26:55.390Z,10.90
2023-01-19T02:35:01.412Z,12.80
2023-01-19T02:39:05.839Z,16.30
2023-01-19T02:43:09.402Z,13.90
2023-01-19T02:47:13.178Z,12.40
2023-01-19T02:51:21.099Z,10.80
2023-01-19T02:55:28.494Z,14.30
2023-01-19T03:00:07.072Z,14.80
2023-01-19T03:04:40.746Z,13.70
2023-01-19T03:09:04.373Z,16.50
2023-01-19T03:13:07.018Z,13.70
2023-01-19T03:17:11.895Z,16.30
2023-01-19T03:21:19.636Z,22.10
2023-01-19T03:25:31.409Z,14.40
2023-01-19T03:29:36.705Z,21.30
2023-01-19T03:33:45.171Z,15.30
2023-01-19T03:37:50.666Z,10.20
2023-01-19T03:41:58.908Z,15.30
2023-01-19T03:46:05.511Z,9.60
2023-01-19T03:50:14.952Z,16.90
2023-01-19T03:54:17.687Z,12.60
2023-01-19T03:58:20.427Z,19.10
2023-01-19T04:02:24.576Z,13.50
2023-01-19T04:06:28.393Z,11.60
2023-01-19T04:10:32.018Z,11.50
2023-01-19T04:14:34.785Z,11.50
2023-01-19T04:18:37.989Z,10.90
2023-01-19T04:22:40.789Z,8.50
2023-01-19T04:26:43.871Z,11.50
2023-01-19T04:30:50.874Z,9.90
2023-01-19T04:34:56.103Z,9.00
2023-01-19T04:38:59.474Z,15.40
2023-01-19T04:43:02.790Z,13.90
2023-01-19T04:47:06.672Z,13.50
2023-01-19T04:51:09.978Z,16.70
2023-01-19T04:55:14.431Z,16.20
2023-01-19T04:59:17.207Z,17.50
2023-01-19T05:03:21.468Z,17.20
2023-01-19T05:07:24.269Z,13.10
2023-01-19T05:11:27.666Z,15.80
2023-01-19T05:15:30.389Z,14.80
2023-01-19T05:19:50.768Z,16.00
2023-01-19T05:23:53.506Z,18.00
2023-01-19T05:28:08.711Z,18.20
2023-01-19T05:32:12.009Z,14.80
2023-01-19T05:36:14.810Z,15.80
2023-01-19T05:40:17.508Z,13.60
2023-01-19T05:44:37.795Z,14.50
2023-01-19T05:48:40.626Z,13.10
2023-01-19T05:52:43.315Z,14.60
2023-01-19T05:56:46.068Z,11.40
2023-01-19T06:00:49.381Z,13.30
2023-01-19T06:04:52.166Z,15.30
2023-01-19T06:08:54.933Z,16.50
2023-01-19T06:12:57.724Z,17.00
2023-01-19T06:17:00.618Z,14.40
2023-01-19T06:21:06.187Z,16.70
2023-01-19T06:25:09.421Z,17.30
2023-01-19T06:29:14.863Z,26.60
2023-01-19T06:33:18.694Z,15.90
2023-01-19T06:37:21.759Z,23.00
2023-01-19T06:41:38.958Z,17.50
2023-01-19T06:45:41.903Z,20.80
2023-01-19T06:49:51.942Z,22.50
2023-01-19T06:53:54.735Z,15.20
2023-01-19T06:57:58.994Z,17.80
2023-01-19T07:02:26.511Z,18.10
2023-01-19T07:06:27.695Z,15.60
2023-01-19T07:11:26.030Z,17.30
2023-01-19T07:14:57.920Z,13.30
2023-01-19T07:19:01.052Z,17.30
2023-01-19T07:23:04.364Z,21.40
2023-01-19T07:27:07.151Z,13.80
2023-01-19T07:31:10.469Z,17.70
2023-01-19T07:35:13.286Z,17.20
2023-01-19T07:39:16.296Z,20.50
2023-01-19T07:43:19.815Z,11.60
2023-01-19T07:47:26.594Z,15.70
2023-01-19T07:51:29.763Z,21.60
2023-01-19T07:55:32.689Z,20.10
2023-01-19T07:59:35.428Z,21.30
2023-01-19T08:03:38.751Z,19.00
2023-01-19T08:08:09.386Z,17.30
2023-01-19T08:12:12.087Z,19.30
2023-01-19T08:16:15.198Z,16.10
2023-01-19T08:20:17.977Z,14.90
2023-01-19T08:24:22.990Z,15.70
2023-01-19T08:28:26.117Z,19.60
2023-01-19T08:32:33.548Z,16.60
2023-01-19T08:36:36.328Z,21.70
2023-01-19T08:41:02.607Z,14.90
2023-01-19T08:45:09.792Z,19.90
2023-01-19T08:49:15.015Z,22.20
2023-01-19T08:53:21.611Z,20.60
2023-01-19T08:57:26.100Z,19.80
2023-01-19T09:05:56.031Z,18.70
2023-01-19T09:09:59.587Z,17.00
2023-01-19T09:14:04.290Z,13.40
2023-01-19T09:18:15.311Z,12.30
2023-01-19T09:22:19.301Z,12.10
2023-01-19T09:26:23.791Z,17.80
2023-01-19T09:30:27.802Z,20.20
2023-01-19T09:34:31.474Z,17.40
2023-01-19T09:38:34.475Z,16.00
2023-01-19T09:42:43.932Z,23.40
2023-01-19T09:46:46.931Z,20.00
2023-01-19T09:50:50.298Z,24.40
2023-01-19T09:54:56.867Z,29.30
2023-01-19T09:59:00.906Z,45.70
2023-01-19T10:03:16.703Z,22.90
2023-01-19T10:07:26.433Z,23.60
2023-01-19T10:11:53.021Z,18.20
2023-01-19T10:16:21.258Z,19.30
2023-01-19T10:20:30.463Z,10.00
2023-01-19T10:24:41.719Z,9.00
2023-01-19T10:28:47.011Z,19.70
2023-01-19T10:32:51.139Z,14.50
2023-01-19T10:37:02.814Z,12.80
2023-01-19T10:41:13.356Z,10.80
2023-01-19T10:45:24.464Z,8.20
2023-01-19T10:49:38.121Z,9.90
2023-01-19T10:53:44.059Z,12.30
2023-01-19T10:57:49.798Z,12.40
2023-01-19T11:02:18.298Z,10.80
2023-01-19T11:06:24.786Z,36.80
2023-01-19T11:10:30.152Z,11.60
2023-01-19T11:14:33.019Z,9.00
2023-01-19T11:18:38.807Z,55.20
2023-01-19T11:22:41.747Z,54.50
2023-01-19T11:26:48.116Z,25.30
2023-01-19T11:30:56.898Z,76.80
2023-01-19T11:35:22.907Z,23.70
2023-01-19T11:39:28.787Z,11.60
2023-01-19T11:43:47.443Z,13.70
2023-01-19T11:47:52.867Z,18.70
2023-01-19T11:52:06.819Z,8.30
2023-01-19T11:56:15.115Z,8.00
2023-01-19T12:00:54.753Z,11.50
2023-01-19T12:05:06.502Z,7.90
2023-01-19T12:09:19.401Z,120.00
2023-01-19T12:13:25.219Z,146.30
2023-01-19T12:17:38.205Z,37.80
2023-01-19T12:21:41.965Z,10.20
2023-01-19T12:26:02.542Z,10.00
2023-01-19T12:30:17.458Z,12.50
2023-01-19T12:34:27.271Z,11.70
2023-01-19T12:38:37.718Z,14.30
2023-01-19T12:42:51.378Z,13.20
2023-01-19T12:46:56.055Z,15.40
2023-01-19T12:50:59.341Z,11.80
2023-01-19T12:55:14.580Z,10.90
2023-01-19T12:59:26.933Z,10.10
2023-01-19T13:03:29.756Z,10.20
2023-01-19T13:08:06.876Z,16.60
2023-01-19T13:12:26.088Z,9.60
2023-01-19T13:16:28.825Z,23.40
2023-01-19T13:20:46.746Z,195.40
2023-01-19T13:25:12.535Z,86.10
2023-01-19T13:29:40.517Z,23.90
2023-01-19T13:33:53.986Z,11.40
2023-01-19T13:38:02.846Z,10.30
2023-01-19T13:42:15.074Z,12.20
2023-01-19T13:46:19.579Z,11.60
2023-01-19T13:50:25.317Z,9.30
2023-01-19T13:54:28.820Z,9.70
2023-01-19T13:58:32.103Z,8.90
2023-01-19T14:02:35.144Z,130.10
2023-01-19T14:06:44.783Z,66.70
2023-01-19T14:11:02.491Z,24.40
2023-01-19T14:15:13.021Z,10.30
2023-01-19T14:19:15.880Z,14.70
2023-01-19T14:23:41.795Z,10.80
2023-01-19T14:27:44.649Z,11.00
2023-01-19T14:32:11.382Z,14.00
2023-01-19T14:36:16.809Z,13.00
2023-01-19T14:40:22.513Z,12.00
2023-01-19T14:44:33.877Z,8.90
2023-01-19T14:48:37.056Z,9.50
2023-01-19T14:52:43.715Z,13.20
2023-01-19T15:00:55.709Z,26.30
2023-01-19T15:05:01.665Z,45.60
2023-01-19T15:09:04.775Z,50.60
2023-01-19T15:13:18.984Z,36.80
2023-01-19T15:17:25.759Z,34.70
2023-01-19T15:21:28.729Z,33.90
2023-01-19T15:25:31.656Z,41.50
2023-01-19T15:29:34.615Z,45.30
2023-01-19T15:33:37.447Z,63.80
2023-01-19T15:37:40.538Z,83.90
2023-01-19T15:41:46.531Z,106.30
2023-01-19T15:46:00.766Z,88.90
2023-01-19T15:50:04.012Z,114.70
2023-01-19T15:54:12.582Z,483.20
2023-01-19T15:58:15.826Z,422.10
2023-01-19T16:02:19.016Z,271.30
2023-01-19T16:06:22.137Z,144.20
2023-01-19T16:10:25.714Z,115.20
2023-01-19T16:14:28.685Z,112.60
2023-01-19T16:18:31.854Z,88.20
2023-01-19T16:22:34.854Z,112.10
2023-01-19T16:26:37.864Z,109.50
2023-01-19T16:30:40.918Z,122.60
2023-01-19T16:34:44.703Z,123.30
2023-01-19T16:38:47.577Z,135.20
2023-01-19T16:42:51.178Z,156.60
2023-01-19T16:46:54.562Z,160.60
2023-01-19T16:51:01.315Z,154.70
2023-01-19T16:55:08.914Z,132.60
2023-01-19T16:59:14.688Z,85.40
2023-01-19T17:03:17.620Z,100.90
2023-01-19T17:07:20.565Z,73.90
2023-01-19T17:11:26.877Z,88.20
2023-01-19T17:15:31.541Z,138.50
2023-01-19T17:19:34.468Z,107.80
2023-01-19T17:23:42.086Z,116.60
2023-01-19T17:27:44.991Z,110.70
2023-01-19T17:31:50.369Z,114.30
2023-01-19T17:35:53.399Z,114.20
2023-01-19T17:39:56.746Z,101.60
2023-01-19T17:44:00.941Z,85.30
2023-01-19T17:48:05.168Z,80.30
2023-01-19T17:52:08.205Z,91.30
2023-01-19T17:56:14.561Z,82.40
2023-01-19T18:00:18.314Z,67.40
2023-01-19T18:04:21.207Z,50.30
2023-01-19T18:08:24.789Z,42.80
2023-01-19T18:12:27.669Z,51.10
2023-01-19T18:16:31.001Z,59.90
2023-01-19T18:20:33.916Z,62.80
2023-01-19T18:24:40.916Z,64.00
2023-01-19T18:28:44.401Z,51.20
2023-01-19T18:32:47.287Z,51.70
2023-01-19T18:36:50.138Z,41.40
2023-01-19T18:41:14.000Z,56.60
2023-01-19T18:45:17.575Z,45.10
2023-01-19T18:49:20.394Z,43.00
2023-01-19T18:53:23.892Z,42.60
2023-01-19T18:57:27.124Z,64.70
2023-01-19T19:01:39.259Z,56.90
2023-01-19T19:05:42.481Z,68.70
2023-01-19T19:09:45.655Z,58.60
2023-01-19T19:13:53.691Z,87.90
2023-01-19T19:17:56.793Z,74.90
2023-01-19T19:21:59.941Z,82.00
2023-01-19T19:26:05.186Z,106.80
2023-01-19T19:30:11.308Z,99.00
2023-01-19T19:34:15.934Z,111.30
2023-01-19T19:38:18.807Z,106.20
2023-01-19T19:42:22.006Z,118.60
2023-01-19T19:46:26.188Z,114.10
2023-01-19T19:50:29.337Z,107.20
2023-01-19T19:54:32.325Z,110.50
2023-01-19T19:58:35.923Z,101.90
2023-01-19T20:02:38.891Z,110.10
2023-01-19T20:06:44.874Z,112.50
2023-01-19T20:10:48.052Z,105.30
2023-01-19T20:14:50.911Z,93.90
2023-01-19T20:18:54.383Z,93.90
2023-01-19T20:22:59.092Z,101.80
2023-01-19T20:27:02.313Z,101.50
2023-01-19T20:31:19.270Z,123.80
2023-01-19T20:35:22.424Z,96.40
2023-01-19T20:39:25.578Z,103.30
2023-01-19T20:43:29.688Z,115.20
2023-01-19T20:47:32.690Z,269.80
2023-01-19T20:51:37.397Z,208.20
2023-01-19T20:55:40.575Z,189.30
2023-01-19T20:59:43.499Z,154.50
2023-01-19T21:03:47.195Z,150.10
2023-01-19T21:07:51.146Z,110.50
2023-01-19T21:11:57.736Z,110.80
2023-01-19T21:16:01.909Z,95.50
2023-01-19T21:20:07.213Z,95.00
2023-01-19T21:24:11.929Z,90.50
2023-01-19T21:28:15.769Z,105.00
2023-01-19T21:32:19.141Z,75.60
2023-01-19T21:36:25.551Z,71.70
2023-01-19T21:40:30.039Z,82.70
2023-01-19T21:44:34.189Z,89.50
2023-01-19T21:48:37.992Z,96.50
2023-01-19T21:52:44.031Z,87.70
2023-01-19T21:56:47.564Z,78.80
2023-01-19T22:00:51.490Z,66.30
2023-01-19T22:04:59.129Z,80.30
2023-01-19T22:09:05.713Z,72.20
2023-01-19T22:17:31.889Z,70.50
2023-01-19T22:21:36.443Z,114.10
2023-01-19T22:25:40.871Z,110.50
2023-01-19T22:29:44.658Z,93.20
2023-01-19T22:33:54.255Z,85.20
2023-01-19T22:37:57.128Z,79.50
2023-01-19T22:42:00.126Z,138.00
2023-01-19T22:46:04.154Z,141.80
2023-01-19T22:50:08.693Z,156.80
2023-01-19T22:54:12.727Z,166.30
2023-01-19T22:58:15.446Z,149.30
2023-01-19T23:02:20.683Z,131.20
2023-01-19T23:06:29.161Z,132.60
2023-01-19T23:10:32.194Z,133.50
2023-01-19T23:14:36.263Z,123.80
2023-01-19T23:18:39.693Z,123.70
2023-01-19T23:22:46.763Z,103.00
2023-01-19T23:26:50.528Z,115.40
2023-01-19T23:30:53.275Z,125.90
2023-01-19T23:34:56.654Z,127.00
2023-01-19T23:39:02.210Z,94.40
2023-01-19T23:43:05.270Z,105.00
2023-01-19T23:47:08.198Z,101.90
2023-01-19T23:51:12.722Z,99.60
2023-01-19T23:55:16.947Z,96.00
2023-01-19T23:59:19.638Z,82.70
